Seattle/Boeing Field, Washington
Current Conditions -  °F | °C
As of 11:53 AM on Friday 21 Nov 2014 (Local Time) from KBFI Reporting Station
Light Rain Light Rain  
Wind Chill: 53°   Ceiling: 5500
Heat Index: 53°   Visibility: 5mi
Dew Point: 46°   Wind: 6mph
Humidity: 77%   Direction: 140°SE
Pressure: 29.62"   Gusts: NA
Location:  47.53°N, 122.3°W
Report Text: KBFI 211953Z 14005KT 5SM -RA BKN055 OVC070 12/08 A2962 RMK AO2 SLP031 P0005 T01170078
Loading
Personal Weather Stations






























Interactive Weather Map New forecast layout! Learn more

10-Day Weather Forecast

Advertisements
Track Severe Weather on mobile